Time;durP1;ratioP1;P1;durP2;ratioP2;P2;SDS_P1;SDS_P2;PMS_P1;PMS_P2;Temp;Humidity;BMP_temperature;BMP_pressure;BME280_temperature;BME280_humidity;BME280_pressure;Samples;Min_cycle;Max_cycle;Signal;HPM_P1;HPM_P2
2022/11/25 00:00:33;;;;;;;0.47;0.47;;;3.10;99.90;;;;;;5051942;28;20169;-69
2022/11/25 00:02:58;;;;;;;0.00;0.00;;;3.10;99.90;;;;;;5051739;28;20173;-69
2022/11/25 00:05:25;;;;;;;0.00;0.00;;;3.10;99.90;;;;;;5049968;28;20186;-69
2022/11/25 00:07:50;;;;;;;0.00;0.00;;;3.10;99.90;;;;;;5051316;28;20284;-69
2022/11/25 00:10:16;;;;;;;0.10;0.10;;;3.00;99.90;;;;;;5051684;28;20650;-69
2022/11/25 00:12:41;;;;;;;0.00;0.00;;;3.10;99.90;;;;;;5051555;28;20209;-69
2022/11/25 00:15:07;;;;;;;0.00;0.00;;;3.00;99.90;;;;;;5055863;28;20544;-69
2022/11/25 00:17:33;;;;;;;0.00;0.00;;;3.00;99.90;;;;;;5055503;28;20180;-69
2022/11/25 00:20:00;;;;;;;0.00;0.00;;;3.00;99.90;;;;;;5055719;28;20277;-69
2022/11/25 00:22:26;;;;;;;0.00;0.00;;;3.00;99.90;;;;;;5055822;28;20165;-69
2022/11/25 00:24:51;;;;;;;0.00;0.00;;;3.00;99.90;;;;;;5055677;28;20177;-69
2022/11/25 00:27:17;;;;;;;0.00;0.00;;;3.00;99.90;;;;;;5055786;28;20258;-69
2022/11/25 00:29:42;;;;;;;0.10;0.10;;;3.00;99.90;;;;;;5055284;28;20569;-69
2022/11/25 00:32:08;;;;;;;0.00;0.00;;;3.00;99.90;;;;;;5055207;28;20181;-68
2022/11/25 00:34:33;;;;;;;0.00;0.00;;;3.00;99.90;;;;;;5041947;28;20189;-68
2022/11/25 00:36:59;;;;;;;0.00;0.00;;;3.00;99.90;;;;;;5055140;28;20181;-70
2022/11/25 00:39:25;;;;;;;0.30;0.30;;;2.90;99.90;;;;;;5054999;28;20540;-69
2022/11/25 00:44:35;;;;;;;0.10;0.10;;;2.90;99.90;;;;;;5055332;28;20185;-69
2022/11/25 00:47:12;;;;;;;0.00;0.00;;;2.90;99.90;;;;;;5055352;28;20190;-69
2022/11/25 00:49:39;;;;;;;1.55;1.20;;;2.90;99.90;;;;;;5055390;28;20213;-69
2022/11/25 00:52:05;;;;;;;0.03;0.03;;;2.90;99.90;;;;;;5055062;28;20177;-69
2022/11/25 00:54:31;;;;;;;0.05;0.05;;;2.90;99.90;;;;;;5054738;28;20656;-69
2022/11/25 00:56:57;;;;;;;0.00;0.00;;;2.90;99.90;;;;;;5054702;28;20178;-69
2022/11/25 00:59:22;;;;;;;0.10;0.10;;;2.90;99.90;;;;;;5054889;28;20644;-69
2022/11/25 01:01:48;;;;;;;0.25;0.25;;;3.00;99.90;;;;;;5054451;28;20188;-70
2022/11/25 01:04:14;;;;;;;0.10;0.10;;;3.00;99.90;;;;;;5053160;28;20197;-69
2022/11/25 01:06:39;;;;;;;0.13;0.13;;;3.00;99.90;;;;;;5054568;28;20181;-69
2022/11/25 01:09:06;;;;;;;0.08;0.08;;;3.00;99.90;;;;;;5054225;28;20217;-69
2022/11/25 01:11:32;;;;;;;0.70;0.30;;;3.00;99.90;;;;;;5055019;28;20188;-69
2022/11/25 01:13:58;;;;;;;0.00;0.00;;;3.00;99.90;;;;;;5054380;28;20225;-69
2022/11/25 01:16:24;;;;;;;0.15;0.15;;;3.10;99.90;;;;;;5054309;28;20181;-68
2022/11/25 01:18:50;;;;;;;0.00;0.00;;;3.10;99.90;;;;;;5054535;28;20177;-68
2022/11/25 01:21:22;;;;;;;0.00;0.00;;;3.10;99.90;;;;;;5054634;28;20747;-68
2022/11/25 01:23:48;;;;;;;0.45;0.45;;;3.10;99.90;;;;;;5053737;28;20323;-69
2022/11/25 01:26:17;;;;;;;0.10;0.10;;;3.10;99.90;;;;;;5052889;28;20180;-69
2022/11/25 01:28:43;;;;;;;0.00;0.00;;;3.10;99.90;;;;;;5053791;28;20198;-69
2022/11/25 01:31:20;;;;;;;0.00;0.00;;;3.10;99.90;;;;;;5054063;28;20197;-69
2022/11/25 01:33:47;;;;;;;0.05;0.05;;;3.10;99.90;;;;;;5054106;28;20177;-69
2022/11/25 01:36:15;;;;;;;0.00;0.00;;;3.10;99.90;;;;;;5053634;28;20189;-69
2022/11/25 01:38:41;;;;;;;0.70;0.32;;;3.10;99.90;;;;;;5040657;28;20637;-69
2022/11/25 01:41:09;;;;;;;0.13;0.13;;;3.10;99.90;;;;;;5052576;28;20546;-68
2022/11/25 01:43:35;;;;;;;0.03;0.03;;;3.10;99.90;;;;;;5053802;28;20217;-69
2022/11/25 01:46:18;;;;;;;0.30;0.22;;;3.20;99.90;;;;;;5053977;28;20247;-69
2022/11/25 01:48:55;;;;;;;0.10;0.10;;;3.20;99.90;;;;;;5052789;28;20270;-69
2022/11/25 01:51:32;;;;;;;0.00;0.00;;;3.20;99.90;;;;;;5053521;28;20209;-69
2022/11/25 01:54:02;;;;;;;0.00;0.00;;;3.20;99.90;;;;;;5053157;28;20212;-69
2022/11/25 01:56:33;;;;;;;0.00;0.00;;;3.20;99.90;;;;;;5053416;28;20182;-69
2022/11/25 01:58:58;;;;;;;0.00;0.00;;;3.20;99.90;;;;;;5053452;28;20191;-68
2022/11/25 02:01:24;;;;;;;0.98;0.75;;;3.20;99.90;;;;;;5053379;28;20193;-69
2022/11/25 02:03:54;;;;;;;0.00;0.00;;;3.20;99.90;;;;;;5053316;28;20543;-69
2022/11/25 02:06:24;;;;;;;0.00;0.00;;;3.20;99.90;;;;;;5052948;28;20174;-69
2022/11/25 02:08:57;;;;;;;0.28;0.25;;;3.20;99.90;;;;;;5053614;28;20567;-69
2022/11/25 02:11:26;;;;;;;0.35;0.35;;;3.20;99.90;;;;;;5053185;28;20265;-69
2022/11/25 02:13:52;;;;;;;0.15;0.15;;;3.20;99.90;;;;;;5052836;28;20217;-69
2022/11/25 02:16:18;;;;;;;0.22;0.20;;;3.20;99.90;;;;;;5053318;28;20182;-69
2022/11/25 02:18:44;;;;;;;0.00;0.00;;;3.30;99.90;;;;;;5053271;28;20236;-69
2022/11/25 02:21:10;;;;;;;0.00;0.00;;;3.30;99.90;;;;;;5053477;28;20261;-69
2022/11/25 02:23:50;;;;;;;0.00;0.00;;;3.30;99.90;;;;;;5053406;28;20189;-69
2022/11/25 02:26:16;;;;;;;0.00;0.00;;;3.30;99.90;;;;;;5053581;28;20181;-69
2022/11/25 02:28:42;;;;;;;0.00;0.00;;;3.30;99.90;;;;;;5052997;28;20201;-69
2022/11/25 02:31:08;;;;;;;0.10;0.10;;;3.30;99.90;;;;;;5053295;28;20643;-69
2022/11/25 02:33:33;;;;;;;0.10;0.10;;;3.30;99.90;;;;;;5052816;28;20318;-69
2022/11/25 02:36:04;;;;;;;0.17;0.17;;;3.30;99.90;;;;;;5053073;28;20181;-69
2022/11/25 02:38:41;;;;;;;0.00;0.00;;;3.30;99.90;;;;;;5052638;28;20648;-69
2022/11/25 02:41:25;;;;;;;0.10;0.10;;;3.30;99.90;;;;;;5052967;28;20272;-69
2022/11/25 02:43:51;;;;;;;0.00;0.00;;;3.30;99.90;;;;;;5033345;28;20162;-70
2022/11/25 02:46:19;;;;;;;0.00;0.00;;;3.30;99.90;;;;;;5043945;28;20645;-69
2022/11/25 02:48:45;;;;;;;0.00;0.00;;;3.30;99.90;;;;;;5052673;28;20247;-69
2022/11/25 02:51:14;;;;;;;0.08;0.08;;;3.30;99.90;;;;;;5044907;28;20587;-69
2022/11/25 02:53:39;;;;;;;0.00;0.00;;;3.30;99.90;;;;;;5033196;28;20235;-69
2022/11/25 02:56:06;;;;;;;0.13;0.13;;;3.30;99.90;;;;;;5052268;28;20653;-69
2022/11/25 02:58:32;;;;;;;0.00;0.00;;;3.30;99.90;;;;;;5050919;28;20186;-69
2022/11/25 03:00:57;;;;;;;0.35;0.35;;;3.30;99.90;;;;;;5052746;28;20193;-69
2022/11/25 03:03:23;;;;;;;0.00;0.00;;;3.30;99.90;;;;;;5052630;28;20214;-69
2022/11/25 03:05:48;;;;;;;0.10;0.10;;;3.30;99.90;;;;;;5052471;28;20272;-69
2022/11/25 03:08:14;;;;;;;0.00;0.00;;;3.30;99.90;;;;;;5052648;28;20266;-69
2022/11/25 03:10:40;;;;;;;0.00;0.00;;;3.40;99.90;;;;;;5052434;28;20671;-69
2022/11/25 03:13:07;;;;;;;0.10;0.10;;;3.40;99.90;;;;;;5052004;28;20224;-69
2022/11/25 03:15:33;;;;;;;0.00;0.00;;;3.40;99.90;;;;;;5051879;28;20174;-69
2022/11/25 03:17:59;;;;;;;0.00;0.00;;;3.40;99.90;;;;;;5052180;28;20178;-69
2022/11/25 03:20:24;;;;;;;0.00;0.00;;;3.40;99.90;;;;;;5051713;28;20597;-69
2022/11/25 03:22:50;;;;;;;0.08;0.08;;;3.40;99.90;;;;;;5052045;28;20177;-70
2022/11/25 03:25:16;;;;;;;0.55;0.55;;;3.40;99.90;;;;;;5050729;28;20605;-69
2022/11/25 03:27:42;;;;;;;0.20;0.20;;;3.40;99.90;;;;;;5052160;28;20185;-69
2022/11/25 03:30:13;;;;;;;0.05;0.05;;;3.40;99.90;;;;;;5051684;28;20231;-69
2022/11/25 03:32:38;;;;;;;0.10;0.10;;;3.50;99.90;;;;;;5051216;28;20178;-69
2022/11/25 03:35:04;;;;;;;0.15;0.03;;;3.50;99.90;;;;;;5051535;28;20181;-69
2022/11/25 03:37:30;;;;;;;0.10;0.10;;;3.50;99.90;;;;;;5051842;28;20598;-69
2022/11/25 03:39:55;;;;;;;0.00;0.00;;;3.60;99.90;;;;;;5051603;28;20205;-69
2022/11/25 03:42:21;;;;;;;0.10;0.10;;;3.60;99.90;;;;;;5043332;28;20629;-70
2022/11/25 03:44:46;;;;;;;0.00;0.00;;;3.60;99.90;;;;;;5045411;28;20189;-69
2022/11/25 03:47:12;;;;;;;0.00;0.00;;;3.60;99.90;;;;;;5052002;28;20531;-70
2022/11/25 03:49:37;;;;;;;0.00;0.00;;;3.60;99.90;;;;;;5051322;28;20620;-70
2022/11/25 03:52:03;;;;;;;0.00;0.00;;;3.60;99.90;;;;;;5051816;28;20181;-70
2022/11/25 03:54:29;;;;;;;0.00;0.00;;;3.60;99.90;;;;;;5051609;28;20684;-70
2022/11/25 03:56:55;;;;;;;0.10;0.10;;;3.60;99.90;;;;;;5051504;28;20268;-70
2022/11/25 03:59:20;;;;;;;0.00;0.00;;;3.60;99.90;;;;;;5051573;28;20648;-69
2022/11/25 04:01:46;;;;;;;0.00;0.00;;;3.50;99.90;;;;;;5051289;28;20181;-70
2022/11/25 04:04:11;;;;;;;0.00;0.00;;;3.50;99.90;;;;;;5051551;28;20219;-70
2022/11/25 04:06:38;;;;;;;0.00;0.00;;;3.50;99.90;;;;;;5051044;28;20189;-70
2022/11/25 04:09:05;;;;;;;0.00;0.00;;;3.50;99.90;;;;;;5051423;28;20212;-69
2022/11/25 04:14:15;;;;;;;0.00;0.00;;;3.40;99.90;;;;;;5051160;28;20240;-69
2022/11/25 04:16:40;;;;;;;0.00;0.00;;;3.40;99.90;;;;;;5051352;28;20640;-70
2022/11/25 04:19:06;;;;;;;0.10;0.10;;;3.40;99.90;;;;;;5049727;28;20561;-69
2022/11/25 04:21:32;;;;;;;0.00;0.00;;;3.40;99.90;;;;;;5051550;28;20174;-70
2022/11/25 04:23:57;;;;;;;0.00;0.00;;;3.40;99.90;;;;;;5049852;28;20219;-70
2022/11/25 04:26:23;;;;;;;0.00;0.00;;;3.40;99.90;;;;;;5050867;28;20700;-71
2022/11/25 04:28:48;;;;;;;0.35;0.35;;;3.40;99.90;;;;;;5050934;28;20201;-70
2022/11/25 04:31:14;;;;;;;0.00;0.00;;;3.40;99.90;;;;;;5050666;28;20269;-71
2022/11/25 04:33:39;;;;;;;0.10;0.10;;;3.40;99.90;;;;;;5051103;28;20220;-71
2022/11/25 04:36:05;;;;;;;0.00;0.00;;;3.40;99.90;;;;;;5050914;28;20192;-72
2022/11/25 04:38:31;;;;;;;0.00;0.00;;;3.30;99.90;;;;;;5052200;28;20541;-67
2022/11/25 04:40:56;;;;;;;0.00;0.00;;;3.30;99.90;;;;;;5050417;28;20181;-69
2022/11/25 04:43:22;;;;;;;0.00;0.00;;;3.30;99.90;;;;;;5038800;28;20265;-65
2022/11/25 04:45:48;;;;;;;0.13;0.13;;;3.30;99.90;;;;;;5050547;28;20201;-68
2022/11/25 04:48:14;;;;;;;0.10;0.10;;;3.30;99.90;;;;;;5049226;28;20186;-67
2022/11/25 04:50:39;;;;;;;0.20;0.20;;;3.30;99.90;;;;;;5050352;28;20649;-70
2022/11/25 04:53:05;;;;;;;0.03;0.03;;;3.30;99.90;;;;;;5050154;28;20217;-66
2022/11/25 04:55:30;;;;;;;0.00;0.00;;;3.30;99.90;;;;;;5049416;28;20177;-70
2022/11/25 04:57:56;;;;;;;0.10;0.10;;;3.30;99.90;;;;;;5050364;28;20208;-71
2022/11/25 05:00:21;;;;;;;0.00;0.00;;;3.30;99.90;;;;;;5051723;28;20181;-73
2022/11/25 05:02:47;;;;;;;0.10;0.10;;;3.30;99.90;;;;;;5054242;28;20535;-73
2022/11/25 05:05:13;;;;;;;0.20;0.20;;;3.30;99.90;;;;;;5053316;28;20637;-71
2022/11/25 05:07:38;;;;;;;0.25;0.25;;;3.40;99.90;;;;;;5053515;28;20193;-70
2022/11/25 05:10:05;;;;;;;0.00;0.00;;;3.40;99.90;;;;;;5050329;28;20700;-70
2022/11/25 05:12:30;;;;;;;0.00;0.00;;;3.40;99.90;;;;;;5051824;28;20182;-69
2022/11/25 05:14:57;;;;;;;0.00;0.00;;;3.40;99.90;;;;;;5053847;28;20564;-70
2022/11/25 05:17:25;;;;;;;0.05;0.05;;;3.40;99.90;;;;;;5053748;28;20260;-71
2022/11/25 05:19:51;;;;;;;0.00;0.00;;;3.40;99.90;;;;;;5052094;28;20241;-71
2022/11/25 05:22:20;;;;;;;0.00;0.00;;;3.40;99.90;;;;;;5054212;28;20184;-71
2022/11/25 05:24:46;;;;;;;0.00;0.00;;;3.40;99.90;;;;;;5054225;28;20173;-70
2022/11/25 05:27:12;;;;;;;0.00;0.00;;;3.40;99.90;;;;;;5054413;28;20185;-71
2022/11/25 05:29:37;;;;;;;0.00;0.00;;;3.40;99.90;;;;;;5054362;28;20291;-70
2022/11/25 05:32:04;;;;;;;0.30;0.30;;;3.40;99.90;;;;;;5054309;28;20192;-70
2022/11/25 05:34:29;;;;;;;0.00;0.00;;;3.40;99.90;;;;;;5054252;28;20232;-70
2022/11/25 05:36:55;;;;;;;0.05;0.05;;;3.30;99.90;;;;;;5053620;28;20186;-70
2022/11/25 05:39:21;;;;;;;0.05;0.05;;;3.30;99.90;;;;;;5053685;28;20268;-71
2022/11/25 05:41:46;;;;;;;0.30;0.30;;;3.20;99.90;;;;;;5051893;28;20562;-70
2022/11/25 05:44:12;;;;;;;0.10;0.10;;;3.20;99.90;;;;;;5053679;28;20185;-70
2022/11/25 05:46:37;;;;;;;0.05;0.05;;;3.20;99.90;;;;;;5053756;28;20181;-70
2022/11/25 05:49:03;;;;;;;0.10;0.10;;;3.20;99.90;;;;;;5053582;28;20672;-71
2022/11/25 05:51:29;;;;;;;0.00;0.00;;;3.20;99.90;;;;;;5052202;28;20251;-70
2022/11/25 05:53:55;;;;;;;0.00;0.00;;;3.10;99.90;;;;;;5053525;28;20177;-70
2022/11/25 05:56:21;;;;;;;0.15;0.15;;;3.10;99.90;;;;;;5053769;28;20181;-70
2022/11/25 05:58:47;;;;;;;1.38;1.27;;;3.10;99.90;;;;;;5052996;28;20186;-70
2022/11/25 06:01:14;;;;;;;0.30;0.30;;;3.10;99.90;;;;;;5053568;28;20231;-70
2022/11/25 06:03:40;;;;;;;0.00;0.00;;;3.10;99.90;;;;;;5051659;28;20205;-70
2022/11/25 06:06:07;;;;;;;0.17;0.17;;;3.10;99.90;;;;;;5052178;28;20177;-71
2022/11/25 06:08:33;;;;;;;0.05;0.05;;;3.10;99.90;;;;;;5053462;28;20255;-70
2022/11/25 06:11:02;;;;;;;0.25;0.25;;;3.10;99.90;;;;;;5052972;28;20185;-71
2022/11/25 06:13:28;;;;;;;0.57;0.57;;;3.10;99.90;;;;;;5052612;28;20249;-70
2022/11/25 06:15:53;;;;;;;0.30;0.30;;;3.20;99.90;;;;;;5053150;28;20220;-70
2022/11/25 06:18:19;;;;;;;0.38;0.38;;;3.20;99.90;;;;;;5053486;28;20589;-70
2022/11/25 06:20:45;;;;;;;0.35;0.35;;;3.10;99.90;;;;;;5052988;28;20253;-70
2022/11/25 06:23:10;;;;;;;1.55;0.65;;;3.10;99.90;;;;;;5053416;28;20194;-70
2022/11/25 06:25:36;;;;;;;0.55;0.35;;;3.10;99.90;;;;;;5050859;28;20220;-70
2022/11/25 06:28:02;;;;;;;0.35;0.08;;;3.10;99.90;;;;;;5052576;28;20205;-68
2022/11/25 06:30:28;;;;;;;0.00;0.00;;;3.10;99.90;;;;;;5052527;28;20209;-70
2022/11/25 06:32:54;;;;;;;0.10;0.10;;;3.10;99.90;;;;;;5053096;28;20197;-70
2022/11/25 06:35:20;;;;;;;0.00;0.00;;;3.00;99.90;;;;;;5053274;28;20231;-70
2022/11/25 06:37:46;;;;;;;0.55;0.25;;;3.00;99.90;;;;;;5052917;28;20273;-70
2022/11/25 06:40:12;;;;;;;0.13;0.13;;;3.00;99.90;;;;;;5051722;28;20235;-70
2022/11/25 06:42:38;;;;;;;0.57;0.57;;;3.10;99.90;;;;;;5048446;28;20595;-70
2022/11/25 06:45:05;;;;;;;0.40;0.40;;;3.10;99.90;;;;;;5032842;28;20198;-70
2022/11/25 06:47:31;;;;;;;0.00;0.00;;;3.10;99.90;;;;;;5033066;28;20209;-69
2022/11/25 06:49:56;;;;;;;0.00;0.00;;;3.20;99.90;;;;;;5048145;28;20222;-69
2022/11/25 06:52:22;;;;;;;0.20;0.20;;;3.20;99.90;;;;;;5033158;28;20174;-69
2022/11/25 06:54:48;;;;;;;0.00;0.00;;;3.30;99.90;;;;;;5032722;28;20174;-69
2022/11/25 06:57:17;;;;;;;0.32;0.32;;;3.30;99.90;;;;;;5032925;28;20166;-69
2022/11/25 06:59:43;;;;;;;0.28;0.28;;;3.40;99.90;;;;;;5032860;28;20534;-69
2022/11/25 07:02:11;;;;;;;0.13;0.13;;;3.40;99.90;;;;;;5032815;28;20665;-69
2022/11/25 07:04:36;;;;;;;0.00;0.00;;;3.50;99.90;;;;;;5032746;28;20652;-69
2022/11/25 07:07:02;;;;;;;0.03;0.03;;;3.50;99.90;;;;;;5032667;28;20174;-70
2022/11/25 07:09:28;;;;;;;0.00;0.00;;;3.60;99.90;;;;;;5032434;28;20220;-70
2022/11/25 07:11:54;;;;;;;0.08;0.08;;;3.60;99.90;;;;;;5032566;28;20174;-69
2022/11/25 07:14:19;;;;;;;0.00;0.00;;;3.60;99.90;;;;;;5032429;28;20299;-69
2022/11/25 07:16:45;;;;;;;0.00;0.00;;;3.70;99.90;;;;;;5051450;28;20173;-70
2022/11/25 07:19:14;;;;;;;0.00;0.00;;;3.70;99.90;;;;;;5051272;28;20181;-70
2022/11/25 07:21:40;;;;;;;0.00;0.00;;;3.80;99.90;;;;;;5052247;28;20231;-67
2022/11/25 07:24:07;;;;;;;0.00;0.00;;;3.80;99.90;;;;;;5051414;28;20169;-71
2022/11/25 07:26:36;;;;;;;0.00;0.00;;;3.90;99.90;;;;;;5048488;28;20173;-71
2022/11/25 07:29:05;;;;;;;0.20;0.20;;;3.90;99.90;;;;;;5052090;28;20197;-68
2022/11/25 07:31:37;;;;;;;0.60;0.43;;;4.00;99.90;;;;;;5051852;28;20209;-72
2022/11/25 07:34:13;;;;;;;0.10;0.10;;;4.00;99.90;;;;;;5051983;28;20181;-72
2022/11/25 07:36:40;;;;;;;0.15;0.15;;;4.10;99.90;;;;;;5052060;28;20177;-73
2022/11/25 07:39:09;;;;;;;0.03;0.03;;;4.10;99.90;;;;;;5050803;28;20216;-71
2022/11/25 07:41:35;;;;;;;0.00;0.00;;;4.20;99.90;;;;;;5052013;28;20174;-73
2022/11/25 07:44:04;;;;;;;0.00;0.00;;;4.20;99.90;;;;;;5050781;28;20189;-68
2022/11/25 07:46:36;;;;;;;0.00;0.00;;;4.20;99.90;;;;;;5050527;28;20177;-71
2022/11/25 07:49:05;;;;;;;0.00;0.00;;;4.30;99.90;;;;;;5049986;28;20209;-71
2022/11/25 07:51:33;;;;;;;0.10;0.10;;;4.30;99.90;;;;;;5051580;28;20205;-71
2022/11/25 07:54:01;;;;;;;0.03;0.03;;;4.40;99.90;;;;;;5051575;28;20208;-70
2022/11/25 07:56:28;;;;;;;0.00;0.00;;;4.40;99.90;;;;;;5037833;28;20190;-70
2022/11/25 07:58:54;;;;;;;0.30;0.30;;;4.40;99.90;;;;;;5048759;28;20174;-69
2022/11/25 08:01:19;;;;;;;0.00;0.00;;;4.50;99.90;;;;;;5051668;28;20189;-69
2022/11/25 08:03:47;;;;;;;0.10;0.10;;;4.50;99.90;;;;;;5051572;28;20173;-69
2022/11/25 08:06:19;;;;;;;0.08;0.03;;;4.60;99.90;;;;;;5050714;28;20259;-72
2022/11/25 08:08:45;;;;;;;0.10;0.10;;;4.60;99.90;;;;;;5051702;28;20198;-73
2022/11/25 08:11:19;;;;;;;0.88;0.88;;;4.60;99.90;;;;;;5051471;28;20542;-71
2022/11/25 08:13:46;;;;;;;0.00;0.00;;;4.70;99.90;;;;;;5056605;28;20223;-72
2022/11/25 08:16:13;;;;;;;0.00;0.00;;;4.70;99.90;;;;;;5059062;28;20187;-70
2022/11/25 08:18:39;;;;;;;0.20;0.20;;;4.80;99.90;;;;;;5065012;28;20178;-72
2022/11/25 08:21:08;;;;;;;0.10;0.10;;;4.80;99.90;;;;;;5051493;28;20184;-70
2022/11/25 08:23:35;;;;;;;0.00;0.00;;;4.90;99.90;;;;;;5051764;28;20227;-67
2022/11/25 08:26:09;;;;;;;0.00;0.00;;;5.00;99.90;;;;;;5051452;28;20601;-69
2022/11/25 08:28:35;;;;;;;0.10;0.10;;;5.10;99.90;;;;;;5051652;28;20205;-72
2022/11/25 08:31:04;;;;;;;0.00;0.00;;;5.20;99.90;;;;;;5051207;28;20201;-69
2022/11/25 08:33:30;;;;;;;0.00;0.00;;;5.30;99.90;;;;;;5036013;28;20762;-71
2022/11/25 08:35:56;;;;;;;0.30;0.20;;;5.50;99.90;;;;;;5053092;28;20269;-69
2022/11/25 08:38:21;;;;;;;0.20;0.20;;;5.60;99.90;;;;;;5054036;28;20174;-72
2022/11/25 08:40:47;;;;;;;0.05;0.05;;;5.80;99.90;;;;;;5055467;28;20184;-69
2022/11/25 08:43:12;;;;;;;0.00;0.00;;;6.00;99.90;;;;;;5040125;28;20189;-69
2022/11/25 08:45:39;;;;;;;0.00;0.00;;;6.10;99.90;;;;;;5035414;28;20186;-72
2022/11/25 08:48:05;;;;;;;0.20;0.20;;;6.20;99.90;;;;;;5034167;28;20185;-72
2022/11/25 08:50:31;;;;;;;1.00;0.28;;;6.30;99.90;;;;;;5035243;28;20213;-71
2022/11/25 08:52:58;;;;;;;0.00;0.00;;;6.30;99.90;;;;;;5035328;28;20179;-71
2022/11/25 08:55:26;;;;;;;0.00;0.00;;;6.30;99.90;;;;;;5051227;28;20174;-68
2022/11/25 08:57:52;;;;;;;0.05;0.05;;;6.30;99.90;;;;;;5035096;28;20167;-67
2022/11/25 09:00:18;;;;;;;0.00;0.00;;;6.40;99.90;;;;;;5033936;28;20185;-67
2022/11/25 09:02:43;;;;;;;0.00;0.00;;;6.40;99.90;;;;;;5035054;28;20166;-68
2022/11/25 09:05:14;;;;;;;0.00;0.00;;;6.40;99.90;;;;;;5035535;28;20178;-66
2022/11/25 09:07:40;;;;;;;0.65;0.52;;;6.50;99.90;;;;;;5039434;28;20233;-68
2022/11/25 09:10:09;;;;;;;0.30;0.30;;;6.60;99.90;;;;;;5054497;28;20241;-67
2022/11/25 09:12:34;;;;;;;0.03;0.03;;;6.60;99.90;;;;;;5054412;28;20243;-66
2022/11/25 09:15:00;;;;;;;0.00;0.00;;;6.60;99.90;;;;;;5054350;28;20652;-65
2022/11/25 09:17:26;;;;;;;0.10;0.10;;;6.60;99.90;;;;;;5054705;28;20200;-65
2022/11/25 09:19:52;;;;;;;0.15;0.10;;;6.70;99.90;;;;;;5055100;28;20265;-66
2022/11/25 09:22:18;;;;;;;0.03;0.03;;;6.70;99.90;;;;;;5054520;28;20236;-68
2022/11/25 09:24:44;;;;;;;0.00;0.00;;;6.70;99.90;;;;;;5053226;28;20539;-68
2022/11/25 09:27:09;;;;;;;0.00;0.00;;;6.70;99.90;;;;;;5054521;28;20177;-68
2022/11/25 09:29:35;;;;;;;0.00;0.00;;;6.70;99.90;;;;;;5054211;28;20251;-68
2022/11/25 09:32:01;;;;;;;0.10;0.10;;;6.70;99.90;;;;;;5053214;28;20196;-68
2022/11/25 09:34:26;;;;;;;0.30;0.30;;;6.70;99.90;;;;;;5053244;28;20177;-69
2022/11/25 09:36:52;;;;;;;0.00;0.00;;;6.70;99.90;;;;;;5054564;28;20559;-68
2022/11/25 09:39:18;;;;;;;0.05;0.05;;;6.70;99.90;;;;;;5054155;28;20185;-68
2022/11/25 09:48:57;;;;;;;0.00;0.00;;;6.70;99.90;;;;;;5044044;28;20193;-69
2022/11/25 09:51:40;;;;;;;0.00;0.00;;;6.70;99.90;;;;;;5053946;28;20192;-68
2022/11/25 09:54:23;;;;;;;0.00;0.00;;;6.70;99.90;;;;;;5053973;28;20181;-68
2022/11/25 09:57:20;;;;;;;0.00;0.00;;;6.70;99.90;;;;;;5043599;28;20563;-68
2022/11/25 09:59:57;;;;;;;0.00;0.00;;;6.70;99.90;;;;;;5039426;28;20235;-68
2022/11/25 10:02:46;;;;;;;0.00;0.00;;;6.70;99.90;;;;;;5052425;28;20204;-68
2022/11/25 10:05:17;;;;;;;0.00;0.00;;;6.70;99.90;;;;;;5053073;28;20250;-68
2022/11/25 10:07:50;;;;;;;0.00;0.00;;;6.80;99.90;;;;;;5053741;28;20200;-68
2022/11/25 10:10:24;;;;;;;0.00;0.00;;;6.80;99.90;;;;;;5053860;28;20221;-68
2022/11/25 10:12:54;;;;;;;0.17;0.17;;;6.80;99.90;;;;;;5052206;28;20221;-68
2022/11/25 10:15:29;;;;;;;0.00;0.00;;;6.80;99.90;;;;;;5053393;28;20185;-68
2022/11/25 10:18:02;;;;;;;0.08;0.03;;;6.90;99.90;;;;;;5053590;28;20223;-68
2022/11/25 10:20:31;;;;;;;0.10;0.10;;;6.90;99.90;;;;;;5053472;28;20574;-69
2022/11/25 10:23:02;;;;;;;0.00;0.00;;;6.90;99.90;;;;;;5053002;28;20554;-68
2022/11/25 10:25:34;;;;;;;0.22;0.22;;;6.90;99.90;;;;;;5053158;28;20181;-69
2022/11/25 10:28:17;;;;;;;0.00;0.00;;;7.00;99.90;;;;;;5053509;28;20174;-69
2022/11/25 10:30:57;;;;;;;0.05;0.05;;;7.00;99.90;;;;;;5053304;28;20300;-68
2022/11/25 10:33:46;;;;;;;0.00;0.00;;;7.00;99.90;;;;;;5053103;28;20174;-69
2022/11/25 10:36:23;;;;;;;0.43;0.22;;;7.00;99.90;;;;;;5052011;28;20277;-68
2022/11/25 10:39:12;;;;;;;0.00;0.00;;;7.00;99.90;;;;;;5053162;28;20191;-69
2022/11/25 10:41:50;;;;;;;0.03;0.03;;;7.00;99.90;;;;;;5052968;28;20193;-68
2022/11/25 10:44:33;;;;;;;0.00;0.00;;;7.00;99.90;;;;;;5053369;28;20181;-69
2022/11/25 10:47:19;;;;;;;0.00;0.00;;;7.10;99.90;;;;;;5052745;28;20259;-69
2022/11/25 10:50:10;;;;;;;0.65;0.65;;;7.10;99.90;;;;;;5052915;28;20525;-69
2022/11/25 10:52:57;;;;;;;0.00;0.00;;;7.20;99.90;;;;;;5053099;28;20260;-69
2022/11/25 10:55:28;;;;;;;0.00;0.00;;;7.30;99.90;;;;;;5052720;28;20185;-69
2022/11/25 10:57:55;;;;;;;0.00;0.00;;;7.30;99.90;;;;;;5051769;28;20189;-69
2022/11/25 11:00:26;;;;;;;0.13;0.13;;;7.30;99.90;;;;;;5052666;28;20200;-69
2022/11/25 11:02:53;;;;;;;0.10;0.10;;;7.40;99.90;;;;;;5052813;28;20196;-69
2022/11/25 11:05:31;;;;;;;3.20;1.38;;;7.40;99.90;;;;;;5033041;28;20630;-68
2022/11/25 11:08:29;;;;;;;0.00;0.00;;;7.40;99.90;;;;;;5037606;28;20208;-68
2022/11/25 11:11:20;;;;;;;0.20;0.20;;;7.50;99.90;;;;;;5052085;28;20278;-69
2022/11/25 11:13:47;;;;;;;0.00;0.00;;;7.50;99.90;;;;;;5052057;28;20228;-69
2022/11/25 11:16:35;;;;;;;0.00;0.00;;;7.50;99.90;;;;;;5052586;28;20664;-69
2022/11/25 11:19:01;;;;;;;0.30;0.30;;;7.60;99.90;;;;;;5032831;28;20264;-68
2022/11/25 11:21:40;;;;;;;1.55;0.68;;;7.60;99.90;;;;;;5049165;28;20177;-69
2022/11/25 11:24:25;;;;;;;0.00;0.00;;;7.60;99.90;;;;;;5038450;28;20181;-69
2022/11/25 11:27:20;;;;;;;0.15;0.15;;;7.50;99.90;;;;;;5052268;28;20268;-68
2022/11/25 11:29:46;;;;;;;0.10;0.10;;;7.50;99.90;;;;;;5051982;28;20257;-69
2022/11/25 11:32:23;;;;;;;0.03;0.03;;;7.50;99.90;;;;;;5052190;28;20216;-69
2022/11/25 11:35:01;;;;;;;0.00;0.00;;;7.50;99.90;;;;;;5052260;28;20185;-68
2022/11/25 11:37:43;;;;;;;0.08;0.08;;;7.50;99.90;;;;;;5052083;28;20177;-69
2022/11/25 11:40:27;;;;;;;0.00;0.00;;;7.60;99.90;;;;;;5038137;28;20197;-69
2022/11/25 11:43:05;;;;;;;0.00;0.00;;;7.60;99.90;;;;;;5050680;28;20543;-69
2022/11/25 11:45:42;;;;;;;0.10;0.10;;;7.60;99.90;;;;;;5050391;28;20574;-69
2022/11/25 11:48:31;;;;;;;0.00;0.00;;;7.60;99.90;;;;;;5052354;28;20307;-69
2022/11/25 11:51:15;;;;;;;0.00;0.00;;;7.70;99.90;;;;;;5052257;28;20545;-69
2022/11/25 11:54:17;;;;;;;0.00;0.00;;;7.70;99.90;;;;;;5050333;28;20236;-69
2022/11/25 11:56:50;;;;;;;0.20;0.20;;;7.80;99.90;;;;;;5041259;28;20189;-70
2022/11/25 11:59:34;;;;;;;0.00;0.00;;;7.80;99.90;;;;;;5032216;28;20637;-69
2022/11/25 12:01:59;;;;;;;0.17;0.17;;;7.80;99.90;;;;;;5049832;28;20546;-69
2022/11/25 12:04:30;;;;;;;0.08;0.08;;;7.90;99.90;;;;;;5051460;28;20260;-69
2022/11/25 12:07:07;;;;;;;0.00;0.00;;;7.90;99.90;;;;;;5051271;28;20276;-71
2022/11/25 12:09:41;;;;;;;0.00;0.00;;;8.00;99.90;;;;;;5051572;28;20213;-67
2022/11/25 12:12:14;;;;;;;0.00;0.00;;;8.10;99.90;;;;;;5051743;28;20255;-69
2022/11/25 12:14:49;;;;;;;0.00;0.00;;;8.10;99.90;;;;;;5051551;28;20221;-66
2022/11/25 12:17:35;;;;;;;0.00;0.00;;;8.10;99.90;;;;;;5051676;28;20604;-68
2022/11/25 12:20:15;;;;;;;0.00;0.00;;;8.20;99.90;;;;;;5051692;28;20541;-69
2022/11/25 12:22:56;;;;;;;0.00;0.00;;;8.30;99.90;;;;;;5051963;28;20181;-69
2022/11/25 12:25:28;;;;;;;0.00;0.00;;;8.40;99.90;;;;;;5051912;28;20176;-69
2022/11/25 12:28:00;;;;;;;0.00;0.00;;;8.40;99.90;;;;;;5051256;28;20186;-67
2022/11/25 12:30:37;;;;;;;0.00;0.00;;;8.50;99.90;;;;;;5055210;28;20313;-70
2022/11/25 12:33:11;;;;;;;2.08;1.42;;;8.50;99.90;;;;;;5051971;28;20531;-72
2022/11/25 12:35:57;;;;;;;0.00;0.00;;;8.50;99.90;;;;;;5051792;28;20173;-71
2022/11/25 12:38:39;;;;;;;0.20;0.20;;;8.60;99.90;;;;;;5050639;28;20259;-71
2022/11/25 12:41:19;;;;;;;0.00;0.00;;;8.60;99.90;;;;;;5051816;28;20671;-70
2022/11/25 12:43:59;;;;;;;0.00;0.00;;;8.70;99.90;;;;;;5049756;28;20203;-71
2022/11/25 12:46:40;;;;;;;0.00;0.00;;;8.70;99.90;;;;;;5051718;28;20180;-72
2022/11/25 12:49:31;;;;;;;0.00;0.00;;;8.70;99.90;;;;;;5051810;28;20692;-71
2022/11/25 12:52:03;;;;;;;0.00;0.00;;;8.80;99.90;;;;;;5051257;28;20225;-72
2022/11/25 12:54:35;;;;;;;0.00;0.00;;;8.80;99.90;;;;;;5051619;28;20212;-72
2022/11/25 12:57:01;;;;;;;0.00;0.00;;;8.80;99.90;;;;;;5051564;28;20193;-71
2022/11/25 12:59:37;;;;;;;0.68;0.68;;;8.90;99.90;;;;;;5050353;28;20173;-72
2022/11/25 13:02:35;;;;;;;0.00;0.00;;;9.00;99.90;;;;;;5051452;28;20533;-67
2022/11/25 13:05:25;;;;;;;0.00;0.00;;;9.20;99.90;;;;;;5033838;28;20193;-73
2022/11/25 13:08:11;;;;;;;0.00;0.00;;;9.40;99.90;;;;;;5038366;28;20636;-73
2022/11/25 13:11:20;;;;;;;0.00;0.00;;;9.60;99.90;;;;;;5039966;28;20699;-71
2022/11/25 13:13:49;;;;;;;0.00;0.00;;;9.60;99.90;;;;;;5050426;28;20217;-71
2022/11/25 13:16:17;;;;;;;0.00;0.00;;;9.60;99.90;;;;;;5049393;28;20236;-73
2022/11/25 13:18:44;;;;;;;0.00;0.00;;;9.50;99.90;;;;;;5050349;28;20180;-68
2022/11/25 13:21:12;;;;;;;0.00;0.00;;;9.40;99.90;;;;;;5051256;28;20185;-68
2022/11/25 13:23:57;;;;;;;0.10;0.10;;;9.30;99.90;;;;;;5054829;28;20184;-70